createdAt,value
2023-03-04T00:00:19.882Z,0
2023-03-04T00:01:36.159Z,0
2023-03-04T00:02:52.465Z,0
2023-03-04T00:04:08.756Z,0
2023-03-04T00:05:25.040Z,0
2023-03-04T00:06:41.343Z,0
2023-03-04T00:07:57.623Z,0
2023-03-04T00:09:13.922Z,0
2023-03-04T00:10:30.232Z,0
2023-03-04T00:11:45.525Z,0
2023-03-04T00:13:01.817Z,0
2023-03-04T00:14:18.113Z,0
2023-03-04T00:15:34.410Z,0
2023-03-04T00:16:50.709Z,0
2023-03-04T00:18:07.004Z,0
2023-03-04T00:19:23.304Z,0
2023-03-04T00:20:39.582Z,0
2023-03-04T00:21:55.885Z,0
2023-03-04T00:23:12.181Z,0
2023-03-04T00:24:28.490Z,0
2023-03-04T00:25:44.771Z,0
2023-03-04T00:27:01.067Z,0
2023-03-04T00:28:16.367Z,0
2023-03-04T00:29:32.676Z,0
2023-03-04T00:30:48.962Z,0
2023-03-04T00:32:05.263Z,0
2023-03-04T00:33:21.555Z,0
2023-03-04T00:34:37.849Z,0
2023-03-04T00:35:54.144Z,0
2023-03-04T00:37:10.431Z,0
2023-03-04T00:38:26.718Z,0
2023-03-04T00:39:43.025Z,0
2023-03-04T00:40:59.324Z,0
2023-03-04T00:42:15.628Z,0
2023-03-04T00:43:31.918Z,0
2023-03-04T00:44:47.231Z,0
2023-03-04T00:46:03.511Z,0
2023-03-04T00:47:19.794Z,0
2023-03-04T00:48:36.091Z,0
2023-03-04T00:49:52.386Z,0
2023-03-04T00:51:08.678Z,0
2023-03-04T00:52:24.984Z,0
2023-03-04T00:53:41.272Z,0
2023-03-04T00:54:57.583Z,0
2023-03-04T00:56:13.863Z,0
2023-03-04T00:57:30.147Z,0
2023-03-04T00:58:46.457Z,0
2023-03-04T01:00:02.744Z,0
2023-03-04T01:01:19.037Z,0
2023-03-04T01:02:34.346Z,0
2023-03-04T01:03:50.642Z,0
2023-03-04T01:05:06.926Z,0
2023-03-04T01:06:23.226Z,0
2023-03-04T01:07:39.526Z,0
2023-03-04T01:08:55.814Z,0
2023-03-04T01:10:12.113Z,0
2023-03-04T01:11:28.411Z,0
2023-03-04T01:12:44.718Z,0
2023-03-04T01:14:00.997Z,0
2023-03-04T01:15:17.297Z,0
2023-03-04T01:16:33.591Z,0
2023-03-04T01:17:49.882Z,0
2023-03-04T01:19:06.175Z,0
2023-03-04T01:20:21.488Z,0
2023-03-04T01:21:37.779Z,0
2023-03-04T01:22:54.080Z,0
2023-03-04T01:24:10.373Z,0
2023-03-04T01:25:26.650Z,0
2023-03-04T01:26:42.965Z,0
2023-03-04T01:27:59.265Z,0
2023-03-04T01:29:15.549Z,0
2023-03-04T01:30:31.852Z,0
2023-03-04T01:31:48.131Z,0
2023-03-04T01:33:04.435Z,0
2023-03-04T01:34:20.721Z,0
2023-03-04T01:35:37.005Z,0
2023-03-04T01:36:53.429Z,0
2023-03-04T01:38:09.727Z,0
2023-03-04T01:39:26.024Z,0
2023-03-04T01:40:42.317Z,0
2023-03-04T01:41:58.602Z,0
2023-03-04T01:43:14.899Z,0
2023-03-04T01:44:31.200Z,0
2023-03-04T01:45:47.489Z,0
2023-03-04T01:47:03.781Z,0
2023-03-04T01:48:20.065Z,0
2023-03-04T01:49:36.368Z,0
2023-03-04T01:50:52.665Z,0
2023-03-04T01:52:08.954Z,0
2023-03-04T01:53:24.265Z,0
2023-03-04T01:54:40.572Z,0
2023-03-04T01:55:56.871Z,0
2023-03-04T01:57:13.156Z,0
2023-03-04T01:58:29.461Z,0
2023-03-04T01:59:45.747Z,0
2023-03-04T02:01:02.026Z,0
2023-03-04T02:02:18.328Z,0
2023-03-04T02:03:34.630Z,0
2023-03-04T02:04:50.912Z,0
2023-03-04T02:06:07.211Z,0
2023-03-04T02:07:23.513Z,0
2023-03-04T02:08:39.801Z,0
2023-03-04T02:09:55.109Z,0
2023-03-04T02:11:11.405Z,0
2023-03-04T02:12:27.714Z,0
2023-03-04T02:13:44.005Z,0
2023-03-04T02:15:00.295Z,0
2023-03-04T02:16:16.581Z,0
2023-03-04T02:17:32.879Z,0
2023-03-04T02:18:49.174Z,0
2023-03-04T02:20:05.461Z,0
2023-03-04T02:21:21.769Z,0
2023-03-04T02:22:38.042Z,0
2023-03-04T02:23:54.356Z,0
2023-03-04T02:25:10.643Z,0
2023-03-04T02:26:25.964Z,0
2023-03-04T02:27:42.265Z,0
2023-03-04T02:28:58.540Z,0
2023-03-04T02:30:14.823Z,0
2023-03-04T02:31:31.126Z,0
2023-03-04T02:32:47.424Z,0
2023-03-04T02:34:03.720Z,0
2023-03-04T02:35:20.018Z,0
2023-03-04T02:36:36.309Z,0
2023-03-04T02:37:52.594Z,0
2023-03-04T02:39:08.910Z,0
2023-03-04T02:40:25.187Z,0
2023-03-04T02:41:41.491Z,0
2023-03-04T02:42:57.907Z,0
2023-03-04T02:44:14.193Z,0
2023-03-04T02:45:30.479Z,0
2023-03-04T02:46:46.793Z,0
2023-03-04T02:48:03.065Z,0
2023-03-04T02:49:19.380Z,0
2023-03-04T02:50:35.675Z,0
2023-03-04T02:51:51.952Z,0
2023-03-04T02:53:08.247Z,0
2023-03-04T02:54:24.550Z,0
2023-03-04T02:55:40.844Z,0
2023-03-04T02:56:57.129Z,0
2023-03-04T02:58:13.429Z,0
2023-03-04T02:59:28.739Z,0
2023-03-04T03:00:45.035Z,0
2023-03-04T03:02:01.347Z,0
2023-03-04T03:03:16.637Z,0
2023-03-04T03:04:32.950Z,0
2023-03-04T03:05:49.233Z,0
2023-03-04T03:07:05.526Z,0
2023-03-04T03:08:21.824Z,0
2023-03-04T03:09:38.134Z,0
2023-03-04T03:10:54.406Z,0
2023-03-04T03:12:10.706Z,0
2023-03-04T03:13:26.990Z,0
2023-03-04T03:14:43.301Z,0
2023-03-04T03:15:59.607Z,0
2023-03-04T03:17:15.898Z,0
2023-03-04T03:18:32.166Z,0
2023-03-04T03:19:47.497Z,0
2023-03-04T03:21:03.784Z,0
2023-03-04T03:22:20.078Z,0
2023-03-04T03:23:36.387Z,0
2023-03-04T03:24:52.654Z,0
2023-03-04T03:26:08.972Z,0
2023-03-04T03:27:25.270Z,0
2023-03-04T03:28:41.545Z,0
2023-03-04T03:29:57.842Z,0
2023-03-04T03:31:14.150Z,0
2023-03-04T03:32:30.437Z,0
2023-03-04T03:33:46.713Z,0
2023-03-04T03:35:03.034Z,0
2023-03-04T03:36:19.324Z,0
2023-03-04T03:37:34.627Z,0
2023-03-04T03:38:50.913Z,0
2023-03-04T03:40:07.223Z,0
2023-03-04T03:42:39.801Z,0
2023-03-04T03:43:56.099Z,0
2023-03-04T03:45:12.382Z,0
2023-03-04T03:46:28.680Z,0
2023-03-04T03:47:44.983Z,0
2023-03-04T03:49:01.260Z,0
2023-03-04T03:50:17.580Z,0
2023-03-04T03:51:33.855Z,0
2023-03-04T03:52:50.143Z,0
2023-03-04T03:54:06.441Z,0
2023-03-04T03:55:21.768Z,0
2023-03-04T03:56:38.044Z,0
2023-03-04T03:57:54.364Z,0
2023-03-04T03:59:10.634Z,0
2023-03-04T04:00:26.933Z,0
2023-03-04T04:01:43.239Z,0
2023-03-04T04:02:59.530Z,0
2023-03-04T04:04:15.807Z,0
2023-03-04T04:05:32.112Z,0
2023-03-04T04:06:48.400Z,0
2023-03-04T04:08:04.710Z,0
2023-03-04T04:09:20.992Z,0
2023-03-04T04:10:37.295Z,0
2023-03-04T04:11:53.578Z,0
2023-03-04T04:13:08.883Z,0
2023-03-04T04:14:25.179Z,0
2023-03-04T04:15:41.485Z,0
2023-03-04T04:16:57.766Z,0
2023-03-04T04:18:14.077Z,0
2023-03-04T04:19:30.374Z,0
2023-03-04T04:20:46.644Z,0
2023-03-04T04:22:02.969Z,0
2023-03-04T04:23:19.238Z,0
2023-03-04T04:24:35.551Z,0
2023-03-04T04:25:51.839Z,0
2023-03-04T04:27:08.127Z,0
2023-03-04T04:28:24.421Z,0
2023-03-04T04:29:40.709Z,0
2023-03-04T04:30:56.037Z,0
2023-03-04T04:32:12.322Z,0
2023-03-04T04:33:28.606Z,0
2023-03-04T04:34:44.907Z,0
2023-03-04T04:36:01.200Z,0
2023-03-04T04:37:17.494Z,0
2023-03-04T04:38:33.800Z,0
2023-03-04T04:39:50.085Z,0
2023-03-04T04:41:06.367Z,0
2023-03-04T04:42:22.662Z,0
2023-03-04T04:43:38.982Z,0
2023-03-04T04:44:55.276Z,0
2023-03-04T04:46:11.557Z,0
2023-03-04T04:47:26.866Z,0
2023-03-04T04:48:43.159Z,0
2023-03-04T04:49:59.453Z,0
2023-03-04T04:51:15.748Z,0
2023-03-04T04:52:32.051Z,0
2023-03-04T04:53:48.340Z,0
2023-03-04T04:55:04.643Z,0
2023-03-04T04:56:20.920Z,0
2023-03-04T04:57:37.222Z,0
2023-03-04T04:58:53.524Z,0
2023-03-04T05:00:09.811Z,0
2023-03-04T05:01:26.091Z,0
2023-03-04T05:02:42.392Z,0
2023-03-04T05:03:57.705Z,0
2023-03-04T05:05:14.008Z,0
2023-03-04T05:06:30.297Z,0
2023-03-04T05:07:46.578Z,0
2023-03-04T05:09:02.887Z,0
2023-03-04T05:10:19.170Z,0
2023-03-04T05:11:35.465Z,0
2023-03-04T05:12:51.755Z,0
2023-03-04T05:14:08.061Z,0
2023-03-04T05:15:24.363Z,0
2023-03-04T05:16:40.650Z,0
2023-03-04T05:17:56.928Z,0
2023-03-04T05:19:13.223Z,0
2023-03-04T05:20:28.532Z,0
2023-03-04T05:21:44.830Z,0
2023-03-04T05:23:01.080Z,1
2023-03-04T05:24:17.331Z,1
2023-03-04T05:25:33.625Z,0
2023-03-04T05:26:49.000Z,2
2023-03-04T05:28:06.102Z,1
2023-03-04T05:29:22.411Z,0
2023-03-04T05:30:38.705Z,0
2023-03-04T05:31:54.948Z,5
2023-03-04T05:33:11.195Z,4
2023-03-04T05:34:27.426Z,1
2023-03-04T05:35:43.678Z,2
2023-03-04T05:36:58.937Z,2
2023-03-04T05:38:15.167Z,3
2023-03-04T05:39:31.413Z,3
2023-03-04T05:40:47.644Z,3
2023-03-04T05:42:03.878Z,4
2023-03-04T05:43:20.143Z,4
2023-03-04T05:44:36.387Z,7
2023-03-04T05:45:52.622Z,15
2023-03-04T05:47:08.857Z,13
2023-03-04T05:48:25.106Z,20
2023-03-04T05:49:41.336Z,18
2023-03-04T05:50:57.583Z,27
2023-03-04T05:52:13.797Z,28
2023-03-04T05:53:29.071Z,32
2023-03-04T05:54:45.311Z,35
2023-03-04T05:56:01.553Z,43
2023-03-04T05:57:17.786Z,43
2023-03-04T05:58:34.033Z,51
2023-03-04T05:59:50.270Z,48
2023-03-04T06:01:06.511Z,52
2023-03-04T06:02:22.749Z,60
2023-03-04T06:03:38.976Z,68
2023-03-04T06:04:55.222Z,63
2023-03-04T06:06:11.457Z,65
2023-03-04T06:07:27.706Z,78
2023-03-04T06:08:43.959Z,81
2023-03-04T06:10:00.190Z,80
2023-03-04T06:11:15.428Z,91
2023-03-04T06:12:31.675Z,102
2023-03-04T06:13:47.920Z,100
2023-03-04T06:15:04.172Z,94
2023-03-04T06:16:20.419Z,108
2023-03-04T06:17:36.650Z,122
2023-03-04T06:18:52.885Z,113
2023-03-04T06:20:09.126Z,147
2023-03-04T06:21:25.353Z,156
2023-03-04T06:22:41.614Z,130
2023-03-04T06:23:57.843Z,163
2023-03-04T06:25:14.074Z,168
2023-03-04T06:26:30.319Z,157
2023-03-04T06:27:45.593Z,137
2023-03-04T06:29:01.827Z,164
2023-03-04T06:30:18.059Z,152
2023-03-04T06:31:34.299Z,182
2023-03-04T06:32:50.525Z,218
2023-03-04T06:34:06.790Z,273
2023-03-04T06:35:23.012Z,231
2023-03-04T06:36:39.253Z,261
2023-03-04T06:37:55.501Z,325
2023-03-04T06:39:11.739Z,311
2023-03-04T06:40:27.981Z,309
2023-03-04T06:41:44.205Z,365
2023-03-04T06:43:00.471Z,308
2023-03-04T06:44:15.702Z,242
2023-03-04T06:45:31.955Z,293
2023-03-04T06:46:48.189Z,387
2023-03-04T06:48:04.421Z,323
2023-03-04T06:49:20.669Z,357
2023-03-04T06:50:36.905Z,406
2023-03-04T06:51:53.163Z,493
2023-03-04T06:53:09.411Z,548
2023-03-04T06:54:25.651Z,394
2023-03-04T06:55:41.882Z,434
2023-03-04T06:56:58.125Z,553
2023-03-04T06:58:14.353Z,482
2023-03-04T06:59:30.593Z,521
2023-03-04T07:00:45.858Z,654
2023-03-04T07:02:02.097Z,778
2023-03-04T07:03:18.329Z,753
2023-03-04T07:04:34.572Z,695
2023-03-04T07:05:50.831Z,693
2023-03-04T07:07:07.042Z,650
2023-03-04T07:08:23.280Z,618
2023-03-04T07:09:39.539Z,874
2023-03-04T07:10:55.772Z,859
2023-03-04T07:12:12.010Z,897
2023-03-04T07:13:28.243Z,824
2023-03-04T07:14:44.500Z,751
2023-03-04T07:16:00.745Z,742
2023-03-04T07:17:15.981Z,711
2023-03-04T07:18:31.254Z,689
2023-03-04T07:19:47.497Z,681
2023-03-04T07:21:03.718Z,716
2023-03-04T07:22:19.970Z,794
2023-03-04T07:23:36.200Z,936
2023-03-04T07:24:52.441Z,880
2023-03-04T07:26:08.707Z,1093
2023-03-04T07:27:24.914Z,1043
2023-03-04T07:28:41.174Z,799
2023-03-04T07:29:57.410Z,953
2023-03-04T07:31:13.666Z,1226
2023-03-04T07:32:29.891Z,1131
2023-03-04T07:33:46.138Z,1125
2023-03-04T07:35:02.506Z,997
2023-03-04T07:36:18.719Z,826
2023-03-04T07:37:34.962Z,1096
2023-03-04T07:38:51.209Z,1170
2023-03-04T07:40:07.463Z,997
2023-03-04T07:41:23.688Z,950
2023-03-04T07:42:39.935Z,1390
2023-03-04T07:43:56.161Z,1146
2023-03-04T07:45:12.419Z,886
2023-03-04T07:46:28.636Z,1208
2023-03-04T07:47:44.889Z,1436
2023-03-04T07:49:01.136Z,1135
2023-03-04T07:50:17.356Z,1668
2023-03-04T07:51:33.611Z,1206
2023-03-04T07:52:48.864Z,1504
2023-03-04T07:54:05.112Z,1334
2023-03-04T07:55:21.344Z,1114
2023-03-04T07:56:37.586Z,1578
2023-03-04T07:57:53.824Z,1027
2023-03-04T07:59:10.076Z,1404
2023-03-04T08:00:26.297Z,1170
2023-03-04T08:01:42.531Z,1208
2023-03-04T08:02:58.782Z,1206
2023-03-04T08:04:15.013Z,1248
2023-03-04T08:05:31.263Z,1364
2023-03-04T08:06:47.498Z,1444
2023-03-04T08:08:03.744Z,1365
2023-03-04T08:09:19.019Z,1493
2023-03-04T08:10:35.241Z,1403
2023-03-04T08:11:51.494Z,1301
2023-03-04T08:13:07.735Z,1770
2023-03-04T08:14:23.960Z,1528
2023-03-04T08:15:40.216Z,1605
2023-03-04T08:16:56.438Z,1098
2023-03-04T08:18:12.693Z,1339
2023-03-04T08:19:28.914Z,1183
2023-03-04T08:20:45.153Z,1439
2023-03-04T08:22:01.389Z,1578
2023-03-04T08:23:17.630Z,1500
2023-03-04T08:24:33.875Z,1914
2023-03-04T08:25:49.125Z,1462
2023-03-04T08:27:05.364Z,1781
2023-03-04T08:28:21.611Z,1548
2023-03-04T08:29:37.860Z,1974
2023-03-04T08:30:54.095Z,1688
2023-03-04T08:32:10.331Z,1747
2023-03-04T08:33:26.574Z,1852
2023-03-04T08:34:42.809Z,2288
2023-03-04T08:35:59.044Z,1861
2023-03-04T08:37:15.302Z,2060
2023-03-04T08:38:31.529Z,2413
2023-03-04T08:39:47.773Z,2053
2023-03-04T08:41:04.014Z,1514
2023-03-04T08:42:19.277Z,1760
2023-03-04T08:43:35.515Z,2361
2023-03-04T08:44:51.761Z,2130
2023-03-04T08:46:07.990Z,2328
2023-03-04T08:47:24.223Z,2325
2023-03-04T08:48:40.481Z,2073
2023-03-04T08:49:56.702Z,1182
2023-03-04T08:51:12.951Z,1851
2023-03-04T08:52:29.201Z,2097
2023-03-04T08:53:45.437Z,1329
2023-03-04T08:55:01.681Z,1735
2023-03-04T08:56:17.899Z,2009
2023-03-04T08:57:34.141Z,2370
2023-03-04T08:58:50.503Z,1990
2023-03-04T09:00:06.754Z,943
2023-03-04T09:01:22.982Z,1254
2023-03-04T09:02:39.224Z,2288
2023-03-04T09:03:55.463Z,2822
2023-03-04T09:05:11.718Z,2582
2023-03-04T09:06:27.948Z,1384
2023-03-04T09:07:44.192Z,1314
2023-03-04T09:09:00.426Z,1617
2023-03-04T09:10:16.677Z,1970
2023-03-04T09:11:32.904Z,2927
2023-03-04T09:12:49.149Z,2489
2023-03-04T09:14:05.388Z,1606
2023-03-04T09:15:20.640Z,2384
2023-03-04T09:16:36.876Z,2003
2023-03-04T09:17:53.120Z,1374
2023-03-04T09:19:09.361Z,1533
2023-03-04T09:20:25.607Z,1622
2023-03-04T09:21:41.838Z,1334
2023-03-04T09:22:58.094Z,583
2023-03-04T09:24:14.326Z,1576
2023-03-04T09:25:30.564Z,2240
2023-03-04T09:26:46.810Z,1622
2023-03-04T09:28:03.044Z,1138
2023-03-04T09:29:19.271Z,1160
2023-03-04T09:30:35.520Z,1885
2023-03-04T09:31:50.771Z,3051
2023-03-04T09:33:07.012Z,2386
2023-03-04T09:34:23.249Z,1819
2023-03-04T09:35:39.495Z,1931
2023-03-04T09:36:55.739Z,2718
2023-03-04T09:38:11.968Z,2759
2023-03-04T09:39:28.216Z,2305
2023-03-04T09:40:44.453Z,1625
2023-03-04T09:42:00.705Z,1626
2023-03-04T09:43:16.927Z,1249
2023-03-04T09:44:33.175Z,1179
2023-03-04T09:45:49.408Z,1178
2023-03-04T09:47:05.651Z,2132
2023-03-04T09:48:20.916Z,2461
2023-03-04T09:49:37.159Z,2170
2023-03-04T09:50:53.393Z,2414
2023-03-04T09:52:09.624Z,1641
2023-03-04T09:53:25.872Z,1618
2023-03-04T09:54:42.116Z,1746
2023-03-04T09:55:58.350Z,1530
2023-03-04T09:57:14.584Z,2201
2023-03-04T09:58:30.827Z,2066
2023-03-04T09:59:47.063Z,2354
2023-03-04T10:01:03.312Z,1874
2023-03-04T10:02:19.549Z,1542
2023-03-04T10:03:35.796Z,2792
2023-03-04T10:04:52.143Z,2380
2023-03-04T10:06:08.386Z,2274
2023-03-04T10:07:24.633Z,2220
2023-03-04T10:08:40.869Z,1843
2023-03-04T10:09:57.118Z,1913
2023-03-04T10:11:13.359Z,1960
2023-03-04T10:12:29.579Z,2336
2023-03-04T10:13:45.834Z,1822
2023-03-04T10:15:02.074Z,1041
2023-03-04T10:16:18.309Z,2930
2023-03-04T10:17:34.555Z,2669
2023-03-04T10:18:50.781Z,2363
2023-03-04T10:20:07.022Z,2748
2023-03-04T10:21:22.287Z,2143
2023-03-04T10:22:38.534Z,1938
2023-03-04T10:25:11.013Z,1647
2023-03-04T10:26:27.249Z,2290
2023-03-04T10:27:43.489Z,2614
2023-03-04T10:28:59.725Z,2398
2023-03-04T10:30:15.963Z,2394
2023-03-04T10:31:32.209Z,2344
2023-03-04T10:32:48.445Z,2065
2023-03-04T10:34:04.682Z,1732
2023-03-04T10:35:20.921Z,1632
2023-03-04T10:36:37.157Z,2066
2023-03-04T10:37:52.417Z,1849
2023-03-04T10:39:08.653Z,1089
2023-03-04T10:40:24.892Z,2062
2023-03-04T10:41:41.149Z,1963
2023-03-04T10:42:57.380Z,1960
2023-03-04T10:44:13.615Z,1609
2023-03-04T10:45:29.858Z,1672
2023-03-04T10:46:46.102Z,2107
2023-03-04T10:48:02.341Z,1586
2023-03-04T10:49:18.586Z,1520
2023-03-04T10:50:34.827Z,1475
2023-03-04T10:51:51.063Z,1314
2023-03-04T10:53:07.294Z,1650
2023-03-04T10:54:22.545Z,1830
2023-03-04T10:55:38.795Z,1681
2023-03-04T10:56:55.028Z,1577
2023-03-04T10:58:11.286Z,1221
2023-03-04T10:59:27.508Z,1198
2023-03-04T11:00:43.756Z,2026
2023-03-04T11:01:59.998Z,1769
2023-03-04T11:03:16.234Z,2848
2023-03-04T11:04:32.469Z,1971
2023-03-04T11:05:48.714Z,2120
2023-03-04T11:07:04.955Z,1698
2023-03-04T11:08:21.190Z,2730
2023-03-04T11:09:37.426Z,3513
2023-03-04T11:10:53.798Z,3390
2023-03-04T11:12:10.028Z,3293
2023-03-04T11:13:26.268Z,3008
2023-03-04T11:14:42.509Z,3364
2023-03-04T11:15:58.756Z,2767
2023-03-04T11:17:14.991Z,2663
2023-03-04T11:18:31.239Z,2912
2023-03-04T11:19:47.471Z,3214
2023-03-04T11:21:03.717Z,3190
2023-03-04T11:22:19.951Z,3115
2023-03-04T11:23:36.186Z,3144
2023-03-04T11:24:52.440Z,3244
2023-03-04T11:26:08.667Z,2792
2023-03-04T11:27:23.928Z,3399
2023-03-04T11:28:40.164Z,2934
2023-03-04T11:29:56.411Z,3101
2023-03-04T11:31:12.641Z,1984
2023-03-04T11:32:28.892Z,2098
2023-03-04T11:33:44.151Z,1729
2023-03-04T11:36:16.626Z,1763
2023-03-04T11:37:32.865Z,1338
2023-03-04T11:38:49.113Z,1216
2023-03-04T11:40:05.348Z,1157
2023-03-04T11:41:21.585Z,779
2023-03-04T11:42:37.839Z,968
2023-03-04T11:43:54.077Z,1953
2023-03-04T11:45:10.315Z,792
2023-03-04T11:46:26.544Z,701
2023-03-04T11:47:42.790Z,1546
2023-03-04T11:48:59.024Z,1146
2023-03-04T11:50:14.279Z,1486
2023-03-04T11:51:30.522Z,2225
2023-03-04T11:52:46.769Z,2645
2023-03-04T11:54:03.012Z,2575
2023-03-04T11:55:19.256Z,2442
2023-03-04T11:56:35.482Z,2354
2023-03-04T11:57:51.738Z,1996
2023-03-04T11:59:07.973Z,2156
2023-03-04T12:00:24.216Z,2174
2023-03-04T12:01:40.456Z,1841
2023-03-04T12:02:56.679Z,1855
2023-03-04T12:04:12.926Z,1732
2023-03-04T12:05:29.164Z,1962
2023-03-04T12:06:44.423Z,1925
2023-03-04T12:08:00.667Z,2215
2023-03-04T12:09:16.893Z,1755
2023-03-04T12:10:33.137Z,1932
2023-03-04T12:11:49.369Z,2561
2023-03-04T12:13:05.615Z,2375
2023-03-04T12:14:21.859Z,2209
2023-03-04T12:15:38.107Z,1939
2023-03-04T12:16:54.330Z,2048
2023-03-04T12:18:10.573Z,2176
2023-03-04T12:19:26.829Z,1868
2023-03-04T12:20:43.057Z,1827
2023-03-04T12:21:59.297Z,2267
2023-03-04T12:23:14.563Z,1645
2023-03-04T12:24:30.795Z,1759
2023-03-04T12:25:47.024Z,1979
2023-03-04T12:27:03.268Z,1270
2023-03-04T12:28:19.511Z,1784
2023-03-04T12:29:35.761Z,1752
2023-03-04T12:30:51.993Z,1667
2023-03-04T12:32:08.229Z,1560
2023-03-04T12:34:40.708Z,1548
2023-03-04T12:35:56.947Z,1290
2023-03-04T12:37:13.199Z,1371
2023-03-04T12:38:29.446Z,1657
2023-03-04T12:39:44.681Z,1931
2023-03-04T12:41:00.943Z,2381
2023-03-04T12:42:17.163Z,2826
2023-03-04T12:43:33.418Z,2712
2023-03-04T12:44:49.651Z,3227
2023-03-04T12:46:05.891Z,2730
2023-03-04T12:47:22.124Z,3202
2023-03-04T12:48:38.371Z,2346
2023-03-04T12:49:54.605Z,2057
2023-03-04T12:51:10.844Z,1942
2023-03-04T12:52:27.078Z,2108
2023-03-04T12:53:43.322Z,2084
2023-03-04T12:54:59.559Z,2302
2023-03-04T12:56:14.823Z,2490
2023-03-04T12:57:31.070Z,2806
2023-03-04T12:58:47.314Z,3023
2023-03-04T13:00:03.537Z,3039
2023-03-04T13:01:19.797Z,2979
2023-03-04T13:02:36.012Z,3123
2023-03-04T13:03:52.263Z,2883
2023-03-04T13:05:08.499Z,2959
2023-03-04T13:06:24.748Z,2522
2023-03-04T13:07:40.985Z,2689
2023-03-04T13:08:57.215Z,2713
2023-03-04T13:10:13.458Z,3014
2023-03-04T13:11:29.701Z,2984
2023-03-04T13:12:44.953Z,3334
2023-03-04T13:14:01.206Z,3252
2023-03-04T13:15:17.428Z,3596
2023-03-04T13:16:33.687Z,3949
2023-03-04T13:17:49.907Z,3643
2023-03-04T13:19:06.150Z,4008
2023-03-04T13:20:22.394Z,3215
2023-03-04T13:21:38.634Z,3253
2023-03-04T13:22:54.867Z,2045
2023-03-04T13:24:11.107Z,1682
2023-03-04T13:25:27.361Z,2830
2023-03-04T13:26:43.591Z,1740
2023-03-04T13:27:59.825Z,1065
2023-03-04T13:29:15.100Z,832
2023-03-04T13:30:31.320Z,1118
2023-03-04T13:31:47.564Z,3203
2023-03-04T13:33:03.805Z,3509
2023-03-04T13:34:20.046Z,4462
2023-03-04T13:35:36.292Z,3908
2023-03-04T13:36:52.537Z,3775
2023-03-04T13:38:08.772Z,4040
2023-03-04T13:39:25.007Z,3859
2023-03-04T13:40:41.248Z,4012
2023-03-04T13:41:57.486Z,3560
2023-03-04T13:43:13.735Z,3471
2023-03-04T13:44:29.961Z,3517
2023-03-04T13:45:45.225Z,3427
2023-03-04T13:47:01.467Z,2948
2023-03-04T13:48:17.698Z,1815
2023-03-04T13:49:33.942Z,1551
2023-03-04T13:50:50.177Z,957
2023-03-04T13:52:06.434Z,742
2023-03-04T13:53:22.654Z,632
2023-03-04T13:54:38.906Z,679
2023-03-04T13:55:55.136Z,621
2023-03-04T13:57:11.372Z,610
2023-03-04T13:58:27.617Z,1157
2023-03-04T13:59:43.860Z,987
2023-03-04T14:01:00.096Z,793
2023-03-04T14:02:15.350Z,869
2023-03-04T14:03:31.586Z,652
2023-03-04T14:04:47.829Z,653
2023-03-04T14:06:04.075Z,734
2023-03-04T14:07:20.325Z,636
2023-03-04T14:08:36.553Z,448
2023-03-04T14:09:52.796Z,577
2023-03-04T14:11:09.037Z,865
2023-03-04T14:12:25.288Z,962
2023-03-04T14:13:41.507Z,1371
2023-03-04T14:14:57.759Z,1673
2023-03-04T14:16:13.993Z,1784
2023-03-04T14:17:30.238Z,1819
2023-03-04T14:18:45.498Z,1681
2023-03-04T14:20:01.717Z,1373
2023-03-04T14:21:17.970Z,1103
2023-03-04T14:22:34.203Z,1389
2023-03-04T14:23:50.450Z,1395
2023-03-04T14:25:06.679Z,1334
2023-03-04T14:26:22.917Z,1291
2023-03-04T14:27:39.171Z,1429
2023-03-04T14:28:55.417Z,1738
2023-03-04T14:30:11.645Z,2024
2023-03-04T14:31:27.888Z,1532
2023-03-04T14:32:44.124Z,1075
2023-03-04T14:34:00.380Z,964
2023-03-04T14:35:15.629Z,1075
2023-03-04T14:36:31.853Z,1179
2023-03-04T14:37:48.106Z,1223
2023-03-04T14:39:04.346Z,1118
2023-03-04T14:40:20.581Z,1132
2023-03-04T14:41:36.823Z,1083
2023-03-04T14:42:53.072Z,1125
2023-03-04T14:44:09.310Z,994
2023-03-04T14:45:25.531Z,1006
2023-03-04T14:46:41.785Z,1059
2023-03-04T14:47:58.010Z,1024
2023-03-04T14:49:14.265Z,864
2023-03-04T14:50:30.516Z,842
2023-03-04T14:51:46.732Z,876
2023-03-04T14:53:02.003Z,768
2023-03-04T14:54:18.244Z,869
2023-03-04T14:55:34.481Z,830
2023-03-04T14:56:50.718Z,717
2023-03-04T14:58:06.972Z,686
2023-03-04T14:59:23.195Z,933
2023-03-04T15:00:39.433Z,916
2023-03-04T15:01:55.675Z,890
2023-03-04T15:03:11.913Z,774
2023-03-04T15:04:28.157Z,833
2023-03-04T15:05:44.399Z,1176
2023-03-04T15:07:00.631Z,1357
2023-03-04T15:08:16.874Z,1130
2023-03-04T15:09:32.132Z,786
2023-03-04T15:10:48.364Z,704
2023-03-04T15:12:04.609Z,606
2023-03-04T15:13:20.853Z,582
2023-03-04T15:14:37.091Z,694
2023-03-04T15:15:53.331Z,551
2023-03-04T15:17:09.566Z,667
2023-03-04T15:18:25.809Z,586
2023-03-04T15:19:42.048Z,626
2023-03-04T15:20:58.287Z,705
2023-03-04T15:22:14.525Z,853
2023-03-04T15:23:30.771Z,894
2023-03-04T15:24:47.014Z,1055
2023-03-04T15:26:02.267Z,1169
2023-03-04T15:27:18.520Z,1149
2023-03-04T15:28:34.749Z,963
2023-03-04T15:29:50.993Z,991
2023-03-04T15:31:07.226Z,1255
2023-03-04T15:32:23.453Z,1340
2023-03-04T15:33:39.710Z,1201
2023-03-04T15:34:55.955Z,1204
2023-03-04T15:36:12.184Z,1255
2023-03-04T15:37:28.420Z,944
2023-03-04T15:38:44.674Z,787
2023-03-04T15:40:00.912Z,775
2023-03-04T15:41:17.135Z,626
2023-03-04T15:42:32.397Z,492
2023-03-04T15:43:48.641Z,509
2023-03-04T15:45:04.885Z,570
2023-03-04T15:46:21.124Z,527
2023-03-04T15:47:37.364Z,512
2023-03-04T15:48:52.617Z,476
2023-03-04T15:50:08.862Z,447
2023-03-04T15:51:25.113Z,494
2023-03-04T15:52:41.338Z,499
2023-03-04T15:53:57.583Z,512
2023-03-04T15:55:13.810Z,419
2023-03-04T15:56:30.072Z,409
2023-03-04T15:57:46.302Z,435
2023-03-04T15:59:02.537Z,502
2023-03-04T16:00:18.782Z,585
2023-03-04T16:01:35.015Z,541
2023-03-04T16:02:51.255Z,636
2023-03-04T16:04:07.496Z,604
2023-03-04T16:05:22.762Z,567
2023-03-04T16:06:38.996Z,484
2023-03-04T16:07:55.235Z,425
2023-03-04T16:09:11.474Z,378
2023-03-04T16:10:27.708Z,369
2023-03-04T16:11:43.949Z,354
2023-03-04T16:13:00.191Z,350
2023-03-04T16:14:16.445Z,328
2023-03-04T16:15:32.668Z,330
2023-03-04T16:16:48.915Z,318
2023-03-04T16:18:05.158Z,299
2023-03-04T16:19:21.403Z,279
2023-03-04T16:20:37.624Z,279
2023-03-04T16:21:52.879Z,273
2023-03-04T16:23:09.128Z,239
2023-03-04T16:24:25.363Z,211
2023-03-04T16:25:41.610Z,202
2023-03-04T16:26:57.852Z,216
2023-03-04T16:28:14.086Z,223
2023-03-04T16:29:30.318Z,217
2023-03-04T16:30:46.564Z,193
2023-03-04T16:32:02.803Z,167
2023-03-04T16:33:19.048Z,137
2023-03-04T16:34:35.287Z,99
2023-03-04T16:35:51.527Z,72
2023-03-04T16:37:07.754Z,87
2023-03-04T16:38:23.030Z,90
2023-03-04T16:39:39.266Z,82
2023-03-04T16:40:55.505Z,67
2023-03-04T16:42:11.748Z,59
2023-03-04T16:43:27.972Z,56
2023-03-04T16:44:44.218Z,60
2023-03-04T16:46:00.459Z,57
2023-03-04T16:47:16.693Z,72
2023-03-04T16:48:32.947Z,89
2023-03-04T16:49:49.192Z,79
2023-03-04T16:51:05.414Z,75
2023-03-04T16:52:21.662Z,65
2023-03-04T16:53:37.909Z,63
2023-03-04T16:54:53.153Z,46
2023-03-04T16:56:09.383Z,45
2023-03-04T16:57:25.627Z,40
2023-03-04T16:58:41.885Z,33
2023-03-04T16:59:58.115Z,27
2023-03-04T17:01:14.349Z,16
2023-03-04T17:02:30.600Z,11
2023-03-04T17:03:46.823Z,6
2023-03-04T17:05:03.062Z,4
2023-03-04T17:06:19.317Z,4
2023-03-04T17:07:35.564Z,7
2023-03-04T17:08:51.794Z,6
2023-03-04T17:10:08.028Z,5
2023-03-04T17:11:24.384Z,4
2023-03-04T17:12:40.642Z,4
2023-03-04T17:13:56.880Z,3
2023-03-04T17:15:13.105Z,1
2023-03-04T17:16:29.358Z,2
2023-03-04T17:17:45.589Z,2
2023-03-04T17:19:01.895Z,0
2023-03-04T17:20:18.189Z,0
2023-03-04T17:21:34.416Z,1
2023-03-04T17:22:50.669Z,1
2023-03-04T17:24:06.965Z,0
2023-03-04T17:25:23.244Z,0
2023-03-04T17:26:39.551Z,0
2023-03-04T17:27:54.866Z,0
2023-03-04T17:29:11.142Z,0
2023-03-04T17:30:27.446Z,0
2023-03-04T17:31:43.731Z,0
2023-03-04T17:33:00.038Z,0
2023-03-04T17:34:16.318Z,0
2023-03-04T17:35:32.619Z,0
2023-03-04T17:36:48.911Z,0
2023-03-04T17:38:05.216Z,0
2023-03-04T17:39:21.497Z,0
2023-03-04T17:40:37.793Z,0
2023-03-04T17:41:54.088Z,0
2023-03-04T17:43:10.382Z,0
2023-03-04T17:44:25.688Z,0
2023-03-04T17:45:41.992Z,0
2023-03-04T17:46:58.291Z,0
2023-03-04T17:48:14.581Z,0